sensor_id;sensor_type;location;lat;lon;timestamp;pressure;altitude;pressure_sealevel;temperature;humidity
23118;BME280;11728;50.624;6.014;2022-09-21T00:02:40;99256.78;;;7.76;96.55
23118;BME280;11728;50.624;6.014;2022-09-21T00:08:03;99263.72;;;7.63;97.32
23118;BME280;11728;50.624;6.014;2022-09-21T00:13:25;99266.38;;;7.61;97.44
23118;BME280;11728;50.624;6.014;2022-09-21T00:18:48;99260.19;;;7.53;97.45
23118;BME280;11728;50.624;6.014;2022-09-21T00:24:11;99260.16;;;7.45;97.60
23118;BME280;11728;50.624;6.014;2022-09-21T00:29:33;99267.13;;;7.40;97.91
23118;BME280;11728;50.624;6.014;2022-09-21T00:34:55;99270.63;;;7.38;98.06
23118;BME280;11728;50.624;6.014;2022-09-21T00:40:17;99273.19;;;7.30;98.20
23118;BME280;11728;50.624;6.014;2022-09-21T00:45:38;99274.03;;;7.22;98.78
23118;BME280;11728;50.624;6.014;2022-09-21T00:51:02;99273.13;;;7.18;98.97
23118;BME280;11728;50.624;6.014;2022-09-21T00:56:27;99265.25;;;7.18;98.69
23118;BME280;11728;50.624;6.014;2022-09-21T01:01:52;99266.13;;;7.17;98.46
23118;BME280;11728;50.624;6.014;2022-09-21T01:07:16;99264.38;;;7.13;98.56
23118;BME280;11728;50.624;6.014;2022-09-21T01:13:09;99266.09;;;7.10;98.24
23118;BME280;11728;50.624;6.014;2022-09-21T01:30:19;99257.28;;;7.02;98.45
23118;BME280;11728;50.624;6.014;2022-09-21T01:35:47;99258.97;;;6.95;98.77
23118;BME280;11728;50.624;6.014;2022-09-21T01:41:12;99258.91;;;6.84;98.98
23118;BME280;11728;50.624;6.014;2022-09-21T01:46:36;99258.81;;;6.73;99.48
23118;BME280;11728;50.624;6.014;2022-09-21T01:52:01;99250.91;;;6.67;99.70
23118;BME280;11728;50.624;6.014;2022-09-21T01:57:55;99247.38;;;6.65;99.93
23118;BME280;11728;50.624;6.014;2022-09-21T02:04:09;99251.75;;;6.62;100.00
23118;BME280;11728;50.624;6.014;2022-09-21T02:09:35;99251.75;;;6.65;100.00
23118;BME280;11728;50.624;6.014;2022-09-21T02:14:58;99255.25;;;6.67;100.00
23118;BME280;11728;50.624;6.014;2022-09-21T02:20:29;99256.16;;;6.67;100.00
23118;BME280;11728;50.624;6.014;2022-09-21T02:31:48;99256.16;;;6.72;100.00
23118;BME280;11728;50.624;6.014;2022-09-21T02:37:16;99261.41;;;6.69;100.00
23118;BME280;11728;50.624;6.014;2022-09-21T02:42:41;99256.94;;;6.59;100.00
23118;BME280;11728;50.624;6.014;2022-09-21T02:48:11;99256.91;;;6.51;100.00
23118;BME280;11728;50.624;6.014;2022-09-21T02:53:35;99253.38;;;6.49;100.00
23118;BME280;11728;50.624;6.014;2022-09-21T02:59:00;99251.69;;;6.56;100.00
23118;BME280;11728;50.624;6.014;2022-09-21T03:04:24;99241.16;;;6.54;100.00
23118;BME280;11728;50.624;6.014;2022-09-21T03:09:45;99237.63;;;6.51;99.96
23118;BME280;11728;50.624;6.014;2022-09-21T03:15:06;99248.09;;;6.45;99.93
23118;BME280;11728;50.624;6.014;2022-09-21T03:20:27;99246.28;;;6.36;100.00
23118;BME280;11728;50.624;6.014;2022-09-21T03:25:48;99246.22;;;6.33;100.00
23118;BME280;11728;50.624;6.014;2022-09-21T03:31:11;99242.69;;;6.28;100.00
23118;BME280;11728;50.624;6.014;2022-09-21T03:36:32;99248.81;;;6.26;100.00
23118;BME280;11728;50.624;6.014;2022-09-21T03:41:53;99257.53;;;6.26;100.00
23118;BME280;11728;50.624;6.014;2022-09-21T03:47:17;99261.00;;;6.22;100.00
23118;BME280;11728;50.624;6.014;2022-09-21T03:52:47;99261.81;;;6.18;100.00
23118;BME280;11728;50.624;6.014;2022-09-21T03:58:14;99266.16;;;6.16;100.00
23118;BME280;11728;50.624;6.014;2022-09-21T04:03:43;99253.00;;;6.09;100.00
23118;BME280;11728;50.624;6.014;2022-09-21T04:09:09;99257.28;;;6.01;100.00
23118;BME280;11728;50.624;6.014;2022-09-21T04:14:38;99258.13;;;5.99;100.00
23118;BME280;11728;50.624;6.014;2022-09-21T04:20:07;99255.41;;;5.90;100.00
23118;BME280;11728;50.624;6.014;2022-09-21T04:25:32;99256.25;;;5.87;100.00
23118;BME280;11728;50.624;6.014;2022-09-21T04:31:04;99262.28;;;5.82;100.00
23118;BME280;11728;50.624;6.014;2022-09-21T04:36:27;99261.38;;;5.77;100.00
23118;BME280;11728;50.624;6.014;2022-09-21T04:41:49;99264.00;;;5.80;100.00
23118;BME280;11728;50.624;6.014;2022-09-21T04:47:10;99263.19;;;5.82;100.00
23118;BME280;11728;50.624;6.014;2022-09-21T04:52:31;99269.31;;;5.83;100.00
23118;BME280;11728;50.624;6.014;2022-09-21T04:57:52;99268.41;;;5.81;100.00
23118;BME280;11728;50.624;6.014;2022-09-21T05:03:13;99274.53;;;5.83;100.00
23118;BME280;11728;50.624;6.014;2022-09-21T05:08:34;99272.78;;;5.80;100.00
23118;BME280;11728;50.624;6.014;2022-09-21T05:14:13;99281.47;;;5.78;100.00
23118;BME280;11728;50.624;6.014;2022-09-21T05:19:34;99279.63;;;5.74;100.00
23118;BME280;11728;50.624;6.014;2022-09-21T05:24:55;99290.13;;;5.74;100.00
23118;BME280;11728;50.624;6.014;2022-09-21T05:30:16;99285.78;;;5.76;100.00
23118;BME280;11728;50.624;6.014;2022-09-21T05:41:03;99294.72;;;5.88;100.00
23118;BME280;11728;50.624;6.014;2022-09-21T05:46:40;99294.84;;;6.00;100.00
23118;BME280;11728;50.624;6.014;2022-09-21T05:52:11;99290.38;;;6.78;100.00
23118;BME280;11728;50.624;6.014;2022-09-21T06:03:12;99291.22;;;8.49;96.81
23118;BME280;11728;50.624;6.014;2022-09-21T06:08:40;99292.06;;;9.37;93.20
23118;BME280;11728;50.624;6.014;2022-09-21T06:14:00;99299.66;;;10.25;90.36
23118;BME280;11728;50.624;6.014;2022-09-21T06:19:22;99293.06;;;10.90;85.74
23118;BME280;11728;50.624;6.014;2022-09-21T06:24:43;99296.09;;;11.40;82.08
23118;BME280;11728;50.624;6.014;2022-09-21T06:30:04;99295.53;;;11.97;81.03
23118;BME280;11728;50.624;6.014;2022-09-21T06:35:27;99291.84;;;12.70;77.63
23118;BME280;11728;50.624;6.014;2022-09-21T06:40:48;99300.47;;;13.38;75.97
23118;BME280;11728;50.624;6.014;2022-09-21T06:46:09;99297.66;;;14.34;72.94
23118;BME280;11728;50.624;6.014;2022-09-21T06:51:30;99288.63;;;14.79;70.86
23118;BME280;11728;50.624;6.014;2022-09-21T06:56:52;99291.59;;;15.39;69.19
23118;BME280;11728;50.624;6.014;2022-09-21T07:02:12;99290.75;;;16.33;65.24
23118;BME280;11728;50.624;6.014;2022-09-21T07:07:33;99292.81;;;16.52;62.55
23118;BME280;11728;50.624;6.014;2022-09-21T07:13:01;99294.81;;;17.00;61.82
23118;BME280;11728;50.624;6.014;2022-09-21T07:18:22;99288.63;;;17.27;60.21
23118;BME280;11728;50.624;6.014;2022-09-21T07:23:43;99299.25;;;18.03;58.32
23118;BME280;11728;50.624;6.014;2022-09-21T07:29:04;99305.28;;;18.34;57.26
23118;BME280;11728;50.624;6.014;2022-09-21T07:34:25;99299.50;;;19.33;56.19
23118;BME280;11728;50.624;6.014;2022-09-21T07:39:46;99299.66;;;20.31;53.94
23118;BME280;11728;50.624;6.014;2022-09-21T07:45:07;99293.13;;;20.93;53.22
23118;BME280;11728;50.624;6.014;2022-09-21T07:50:28;99290.59;;;21.25;51.52
23118;BME280;11728;50.624;6.014;2022-09-21T07:55:49;99292.78;;;21.88;49.58
23118;BME280;11728;50.624;6.014;2022-09-21T08:01:10;99287.47;;;22.52;48.87
23118;BME280;11728;50.624;6.014;2022-09-21T08:06:32;99285.78;;;22.98;46.92
23118;BME280;11728;50.624;6.014;2022-09-21T08:11:55;99280.75;;;23.53;45.74
23118;BME280;11728;50.624;6.014;2022-09-21T08:17:17;99283.47;;;24.26;44.88
23118;BME280;11728;50.624;6.014;2022-09-21T08:22:39;99286.38;;;25.06;43.47
23118;BME280;11728;50.624;6.014;2022-09-21T08:27:59;99283.81;;;25.45;41.73
23118;BME280;11728;50.624;6.014;2022-09-21T08:33:22;99285.19;;;25.91;40.42
23118;BME280;11728;50.624;6.014;2022-09-21T08:38:44;99280.19;;;25.97;40.08
23118;BME280;11728;50.624;6.014;2022-09-21T08:44:20;99282.47;;;25.91;38.00
23118;BME280;11728;50.624;6.014;2022-09-21T08:49:50;99282.06;;;25.44;39.72
23118;BME280;11728;50.624;6.014;2022-09-21T08:55:19;99278.31;;;26.61;38.30
23118;BME280;11728;50.624;6.014;2022-09-21T09:00:43;99277.88;;;27.05;36.29
23118;BME280;11728;50.624;6.014;2022-09-21T09:06:21;99271.06;;;27.82;34.35
23118;BME280;11728;50.624;6.014;2022-09-21T09:23:11;99266.84;;;29.34;31.44
23118;BME280;11728;50.624;6.014;2022-09-21T09:28:47;99258.28;;;29.91;31.80
23118;BME280;11728;50.624;6.014;2022-09-21T09:34:17;99257.03;;;30.36;31.36
23118;BME280;11728;50.624;6.014;2022-09-21T09:39:46;99264.44;;;29.62;30.82
23118;BME280;11728;50.624;6.014;2022-09-21T09:45:22;99264.53;;;29.18;30.54
23118;BME280;11728;50.624;6.014;2022-09-21T09:50:47;99276.22;;;28.53;31.52
23118;BME280;11728;50.624;6.014;2022-09-21T09:56:09;99274.41;;;25.51;35.21
23118;BME280;11728;50.624;6.014;2022-09-21T10:01:37;99287.00;;;23.54;37.64
23118;BME280;11728;50.624;6.014;2022-09-21T10:06:59;99280.03;;;22.73;38.52
23118;BME280;11728;50.624;6.014;2022-09-21T10:12:24;99271.31;;;22.52;39.20
23118;BME280;11728;50.624;6.014;2022-09-21T10:17:47;99265.91;;;22.37;39.17
23118;BME280;11728;50.624;6.014;2022-09-21T10:23:11;99261.97;;;22.90;39.24
23118;BME280;11728;50.624;6.014;2022-09-21T10:28:33;99264.72;;;23.66;37.36
23118;BME280;11728;50.624;6.014;2022-09-21T10:39:27;99253.78;;;26.75;34.67
23118;BME280;11728;50.624;6.014;2022-09-21T10:44:52;99254.53;;;26.03;34.14
23118;BME280;11728;50.624;6.014;2022-09-21T10:50:29;99251.50;;;24.48;35.69
23118;BME280;11728;50.624;6.014;2022-09-21T11:01:22;99240.91;;;23.43;37.33
23118;BME280;11728;50.624;6.014;2022-09-21T11:06:47;99234.50;;;26.05;33.75
23118;BME280;11728;50.624;6.014;2022-09-21T11:12:25;99235.31;;;25.81;33.61
23118;BME280;11728;50.624;6.014;2022-09-21T11:17:58;99241.50;;;24.06;35.29
23118;BME280;11728;50.624;6.014;2022-09-21T11:34:41;99239.88;;;23.30;38.11
23118;BME280;11728;50.624;6.014;2022-09-21T11:45:50;99230.50;;;27.21;33.64
23118;BME280;11728;50.624;6.014;2022-09-21T11:51:36;99217.88;;;29.23;30.72
23118;BME280;11728;50.624;6.014;2022-09-21T11:57:04;99210.69;;;29.22;30.55
23118;BME280;11728;50.624;6.014;2022-09-21T12:13:57;99207.47;;;24.60;33.58
23118;BME280;11728;50.624;6.014;2022-09-21T12:25:04;99197.22;;;23.52;35.85
23118;BME280;11728;50.624;6.014;2022-09-21T12:30:33;99203.03;;;23.00;36.33
23118;BME280;11728;50.624;6.014;2022-09-21T12:41:50;99199.56;;;23.13;37.85
23118;BME280;11728;50.624;6.014;2022-09-21T12:47:14;99197.50;;;23.03;37.84
23118;BME280;11728;50.624;6.014;2022-09-21T12:52:36;99193.31;;;22.82;38.50
23118;BME280;11728;50.624;6.014;2022-09-21T12:58:10;99189.22;;;22.90;38.98
23118;BME280;11728;50.624;6.014;2022-09-21T13:03:43;99181.03;;;22.92;38.66
23118;BME280;11728;50.624;6.014;2022-09-21T13:09:11;99189.72;;;22.35;39.41
23118;BME280;11728;50.624;6.014;2022-09-21T13:14:35;99182.84;;;21.97;39.78
23118;BME280;11728;50.624;6.014;2022-09-21T13:20:05;99172.09;;;21.80;39.36
23118;BME280;11728;50.624;6.014;2022-09-21T13:25:29;99178.13;;;21.52;39.75
23118;BME280;11728;50.624;6.014;2022-09-21T13:36:35;99163.31;;;22.09;39.12
23118;BME280;11728;50.624;6.014;2022-09-21T13:41:56;99160.63;;;22.72;38.40
23118;BME280;11728;50.624;6.014;2022-09-21T13:47:27;99167.75;;;23.04;37.31
23118;BME280;11728;50.624;6.014;2022-09-21T13:52:52;99165.38;;;22.21;39.25
23118;BME280;11728;50.624;6.014;2022-09-21T13:58:29;99156.97;;;21.63;39.20
23118;BME280;11728;50.624;6.014;2022-09-21T14:03:58;99158.81;;;21.44;40.18
23118;BME280;11728;50.624;6.014;2022-09-21T14:09:26;99156.06;;;21.62;40.24
23118;BME280;11728;50.624;6.014;2022-09-21T14:20:39;99144.06;;;21.35;40.50
23118;BME280;11728;50.624;6.014;2022-09-21T14:26:01;99145.16;;;20.97;41.05
23118;BME280;11728;50.624;6.014;2022-09-21T14:31:38;99136.84;;;20.67;41.49
23118;BME280;11728;50.624;6.014;2022-09-21T14:37:02;99141.59;;;20.43;42.09
23118;BME280;11728;50.624;6.014;2022-09-21T14:42:27;99133.78;;;20.39;41.95
23118;BME280;11728;50.624;6.014;2022-09-21T14:48:23;99134.81;;;20.18;42.13
23118;BME280;11728;50.624;6.014;2022-09-21T15:05:14;99114.44;;;19.76;42.99
23118;BME280;11728;50.624;6.014;2022-09-21T15:10:53;99111.41;;;19.65;43.46
23118;BME280;11728;50.624;6.014;2022-09-21T15:16:42;99109.66;;;19.64;43.85
23118;BME280;11728;50.624;6.014;2022-09-21T15:22:20;99103.25;;;19.48;44.08
23118;BME280;11728;50.624;6.014;2022-09-21T15:27:43;99101.34;;;19.32;44.98
23118;BME280;11728;50.624;6.014;2022-09-21T15:33:10;99098.75;;;19.09;45.19
23118;BME280;11728;50.624;6.014;2022-09-21T15:38:33;99101.56;;;18.86;45.47
23118;BME280;11728;50.624;6.014;2022-09-21T15:44:06;99093.88;;;18.98;45.90
23118;BME280;11728;50.624;6.014;2022-09-21T15:49:32;99099.09;;;19.41;45.08
23118;BME280;11728;50.624;6.014;2022-09-21T15:54:57;99101.88;;;19.58;45.53
23118;BME280;11728;50.624;6.014;2022-09-21T16:00:25;99101.47;;;19.85;45.35
23118;BME280;11728;50.624;6.014;2022-09-21T16:05:49;99097.50;;;19.94;45.71
23118;BME280;11728;50.624;6.014;2022-09-21T16:11:11;99100.75;;;19.82;44.64
23118;BME280;11728;50.624;6.014;2022-09-21T16:22:38;99095.31;;;18.85;44.95
23118;BME280;11728;50.624;6.014;2022-09-21T16:33:56;99100.63;;;18.46;46.10
23118;BME280;11728;50.624;6.014;2022-09-21T16:39:18;99100.09;;;18.36;46.53
23118;BME280;11728;50.624;6.014;2022-09-21T16:44:39;99101.91;;;17.91;46.68
23118;BME280;11728;50.624;6.014;2022-09-21T16:50:11;99109.69;;;17.52;47.66
23118;BME280;11728;50.624;6.014;2022-09-21T16:55:32;99102.09;;;17.15;48.57
23118;BME280;11728;50.624;6.014;2022-09-21T17:00:54;99114.06;;;16.80;49.39
23118;BME280;11728;50.624;6.014;2022-09-21T17:06:19;99110.44;;;16.56;50.24
23118;BME280;11728;50.624;6.014;2022-09-21T17:11:41;99106.63;;;16.37;51.25
23118;BME280;11728;50.624;6.014;2022-09-21T17:17:20;99110.72;;;16.20;53.04
23118;BME280;11728;50.624;6.014;2022-09-21T17:22:42;99122.31;;;15.92;54.07
23118;BME280;11728;50.624;6.014;2022-09-21T17:28:13;99124.97;;;15.63;55.95
23118;BME280;11728;50.624;6.014;2022-09-21T17:33:34;99123.97;;;15.37;56.58
23118;BME280;11728;50.624;6.014;2022-09-21T17:38:55;99129.16;;;15.08;58.17
23118;BME280;11728;50.624;6.014;2022-09-21T17:49:45;99139.69;;;14.46;62.28
23118;BME280;11728;50.624;6.014;2022-09-21T17:55:09;99144.72;;;14.23;64.12
23118;BME280;11728;50.624;6.014;2022-09-21T18:00:49;99140.81;;;13.98;66.30
23118;BME280;11728;50.624;6.014;2022-09-21T18:06:12;99145.00;;;13.70;68.16
23118;BME280;11728;50.624;6.014;2022-09-21T18:28:41;99153.09;;;12.72;74.96
23118;BME280;11728;50.624;6.014;2022-09-21T18:34:25;99146.53;;;12.43;76.98
23118;BME280;11728;50.624;6.014;2022-09-21T18:40:29;99151.28;;;12.23;78.00
23118;BME280;11728;50.624;6.014;2022-09-21T18:57:33;99150.84;;;11.93;77.47
23118;BME280;11728;50.624;6.014;2022-09-21T19:02:54;99159.00;;;11.79;78.00
23118;BME280;11728;50.624;6.014;2022-09-21T19:08:24;99165.44;;;11.59;78.99
23118;BME280;11728;50.624;6.014;2022-09-21T19:25:28;99173.88;;;11.16;79.83
23118;BME280;11728;50.624;6.014;2022-09-21T19:30:51;99170.50;;;10.99;80.02
23118;BME280;11728;50.624;6.014;2022-09-21T19:36:14;99180.31;;;10.89;80.00
23118;BME280;11728;50.624;6.014;2022-09-21T19:41:54;99187.50;;;10.75;81.10
23118;BME280;11728;50.624;6.014;2022-09-21T19:48:12;99192.88;;;10.68;81.43
23118;BME280;11728;50.624;6.014;2022-09-21T19:53:25;99184.09;;;10.62;81.08
23118;BME280;11728;50.624;6.014;2022-09-21T19:59:05;99183.28;;;10.57;80.81
23118;BME280;11728;50.624;6.014;2022-09-21T20:04:56;99179.84;;;10.46;81.38
23118;BME280;11728;50.624;6.014;2022-09-21T20:10:39;99179.06;;;10.29;82.02
23118;BME280;11728;50.624;6.014;2022-09-21T20:21:29;99177.53;;;10.01;83.19
23118;BME280;11728;50.624;6.014;2022-09-21T20:26:54;99179.28;;;9.99;82.83
23118;BME280;11728;50.624;6.014;2022-09-21T20:32:15;99170.50;;;9.94;82.81
23118;BME280;11728;50.624;6.014;2022-09-21T20:37:37;99167.94;;;9.79;83.55
23118;BME280;11728;50.624;6.014;2022-09-21T20:42:58;99175.97;;;9.61;84.96
23118;BME280;11728;50.624;6.014;2022-09-21T20:48:20;99172.50;;;9.53;85.13
23118;BME280;11728;50.624;6.014;2022-09-21T20:53:41;99172.53;;;9.41;85.58
23118;BME280;11728;50.624;6.014;2022-09-21T20:59:02;99163.78;;;9.33;85.67
23118;BME280;11728;50.624;6.014;2022-09-21T21:04:23;99164.69;;;9.26;86.09
23118;BME280;11728;50.624;6.014;2022-09-21T21:09:44;99163.84;;;9.18;86.48
23118;BME280;11728;50.624;6.014;2022-09-21T21:15:05;99166.50;;;9.08;86.71
23118;BME280;11728;50.624;6.014;2022-09-21T21:20:26;99163.91;;;8.92;87.35
23118;BME280;11728;50.624;6.014;2022-09-21T21:25:48;99163.97;;;8.77;88.36
23118;BME280;11728;50.624;6.014;2022-09-21T21:31:09;99167.47;;;8.67;88.99
23118;BME280;11728;50.624;6.014;2022-09-21T21:36:31;99163.13;;;8.66;88.89
23118;BME280;11728;50.624;6.014;2022-09-21T21:41:52;99169.25;;;8.71;88.80
23118;BME280;11728;50.624;6.014;2022-09-21T21:47:13;99162.22;;;8.70;88.52
23118;BME280;11728;50.624;6.014;2022-09-21T21:52:34;99156.94;;;8.70;88.14
23118;BME280;11728;50.624;6.014;2022-09-21T21:57:54;99149.94;;;8.64;87.93
23118;BME280;11728;50.624;6.014;2022-09-21T22:03:16;99156.97;;;8.55;88.08
23118;BME280;11728;50.624;6.014;2022-09-21T22:08:38;99162.22;;;8.46;88.37
23118;BME280;11728;50.624;6.014;2022-09-21T22:14:00;99157.84;;;8.48;88.51
23118;BME280;11728;50.624;6.014;2022-09-21T22:19:22;99153.44;;;8.53;88.12
23118;BME280;11728;50.624;6.014;2022-09-21T22:24:43;99146.44;;;8.58;87.54
23118;BME280;11728;50.624;6.014;2022-09-21T22:30:04;99146.41;;;8.61;87.68
23118;BME280;11728;50.624;6.014;2022-09-21T22:35:25;99137.63;;;8.59;87.32
23118;BME280;11728;50.624;6.014;2022-09-21T22:40:46;99145.56;;;8.51;87.76
23118;BME280;11728;50.624;6.014;2022-09-21T22:46:07;99145.56;;;8.41;88.15
23118;BME280;11728;50.624;6.014;2022-09-21T22:51:28;99149.06;;;8.31;88.36
23118;BME280;11728;50.624;6.014;2022-09-21T22:56:49;99148.19;;;8.32;88.53
23118;BME280;11728;50.624;6.014;2022-09-21T23:02:10;99141.22;;;8.28;88.12
23118;BME280;11728;50.624;6.014;2022-09-21T23:07:31;99142.06;;;8.30;87.95
23118;BME280;11728;50.624;6.014;2022-09-21T23:12:52;99139.44;;;8.27;87.49
23118;BME280;11728;50.624;6.014;2022-09-21T23:18:13;99134.19;;;8.18;87.81
23118;BME280;11728;50.624;6.014;2022-09-21T23:23:34;99130.66;;;8.13;87.86
23118;BME280;11728;50.624;6.014;2022-09-21T23:28:57;99125.38;;;8.07;88.21
23118;BME280;11728;50.624;6.014;2022-09-21T23:34:18;99133.28;;;8.07;87.67
23118;BME280;11728;50.624;6.014;2022-09-21T23:39:39;99124.50;;;8.07;87.87
23118;BME280;11728;50.624;6.014;2022-09-21T23:45:00;99135.00;;;8.02;87.87
23118;BME280;11728;50.624;6.014;2022-09-21T23:50:21;99133.25;;;7.95;88.32
23118;BME280;11728;50.624;6.014;2022-09-21T23:55:42;99133.28;;;7.92;88.45
